Time;durP1;ratioP1;P1;durP2;ratioP2;P2;SDS_P1;SDS_P2;PMS_P1;PMS_P2;Temp;Humidity;BMP_temperature;BMP_pressure;BME280_temperature;BME280_humidity;BME280_pressure;Samples;Min_cycle;Max_cycle;Signal;HPM_P1;HPM_P2
2023/03/22 00:01:02;;;;;;;;;4.00;4.00;;;;;20.53;52.80;100698.71;109492;1254;23564;-75
2023/03/22 00:03:29;;;;;;;;;2.00;2.00;;;;;20.53;53.00;100689.31;109527;1268;19450;-75
2023/03/22 00:05:57;;;;;;;;;4.00;4.00;;;;;20.53;52.98;100684.05;109521;1268;19608;-75
2023/03/22 00:08:24;;;;;;;;;;;;;;;20.53;52.81;100681.36;109486;1268;21804;-76
2023/03/22 00:10:51;;;;;;;;;4.00;4.00;;;;;20.54;52.81;100687.38;109557;1253;19643;-77
2023/03/22 00:13:19;;;;;;;;;4.00;4.00;;;;;20.53;52.67;100683.84;109539;1254;21973;-76
2023/03/22 00:15:47;;;;;;;;;2.00;2.00;;;;;20.54;52.89;100676.68;109509;1269;20151;-74
2023/03/22 00:18:15;;;;;;;;;2.00;2.00;;;;;20.54;52.90;100667.63;109472;1253;19160;-76
2023/03/22 00:20:42;;;;;;;;;2.00;2.00;;;;;20.54;52.86;100664.54;109498;1269;19383;-75
2023/03/22 00:23:09;;;;;;;;;4.00;2.00;;;;;20.53;52.82;100658.20;109501;1254;22734;-76
2023/03/22 00:25:37;;;;;;;;;4.00;2.00;;;;;20.53;52.73;100657.36;109508;1268;19256;-76
2023/03/22 00:28:04;;;;;;;;;2.00;2.00;;;;;20.53;52.84;100650.64;109527;1269;23221;-75
2023/03/22 00:30:31;;;;;;;;;2.00;2.00;;;;;20.53;52.94;100651.50;109507;1254;21573;-76
2023/03/22 00:32:59;;;;;;;;;2.00;2.00;;;;;20.53;52.70;100646.80;109530;1268;23000;-76
2023/03/22 00:35:26;;;;;;;;;2.00;2.00;;;;;20.53;52.88;100646.80;109489;1260;19423;-75
2023/03/22 00:37:53;;;;;;;;;3.00;3.00;;;;;20.53;52.80;100644.09;109498;1254;22759;-75
2023/03/22 00:40:21;;;;;;;;;4.00;4.00;;;;;20.53;52.83;100642.63;109500;1254;22612;-75
2023/03/22 00:42:48;;;;;;;;;4.00;2.00;;;;;20.52;52.83;100642.02;109534;1269;23699;-76
2023/03/22 00:45:15;;;;;;;;;2.00;2.00;;;;;20.52;52.77;100642.34;109522;1263;21490;-76
2023/03/22 00:47:43;;;;;;;;;4.00;4.00;;;;;20.54;52.74;100644.41;109502;1269;23746;-75
2023/03/22 00:50:10;;;;;;;;;4.00;4.00;;;;;20.52;52.77;100641.13;109488;1253;20905;-76
2023/03/22 00:52:37;;;;;;;;;2.00;2.00;;;;;20.52;52.93;100642.54;109490;1269;21740;-76
2023/03/22 00:55:05;;;;;;;;;2.00;2.00;;;;;20.52;52.64;100637.27;109501;1261;23468;-76
2023/03/22 00:57:32;;;;;;;;;2.00;2.00;;;;;20.52;52.87;100630.27;109544;1253;20696;-76
2023/03/22 01:00:06;;;;;;;;;2.00;2.00;;;;;20.52;52.72;100630.78;109501;1254;22744;-75
2023/03/22 01:02:34;;;;;;;;;6.00;3.00;;;;;20.53;52.93;100626.32;109472;1268;19258;-76
2023/03/22 01:05:01;;;;;;;;;2.00;2.00;;;;;20.52;52.76;100619.69;109436;1268;19583;-76
2023/03/22 01:07:28;;;;;;;;;4.00;4.00;;;;;20.52;52.73;100623.02;109483;1269;20149;-76
2023/03/22 01:09:56;;;;;;;;;2.00;2.00;;;;;20.51;52.62;100614.58;109482;1253;19913;-76
2023/03/22 01:12:23;;;;;;;;;4.00;2.00;;;;;20.52;52.77;100612.80;109500;1263;19358;-76
2023/03/22 01:14:51;;;;;;;;;2.00;2.00;;;;;20.51;52.66;100605.80;109497;1253;23062;-76
2023/03/22 01:17:18;;;;;;;;;4.00;4.00;;;;;20.51;52.71;100602.41;109499;1260;19761;-76
2023/03/22 01:19:45;;;;;;;;;2.00;2.00;;;;;20.50;52.86;100600.83;109501;1269;19535;-76
2023/03/22 01:22:13;;;;;;;;;4.00;4.00;;;;;20.50;52.87;100595.96;109527;1253;20496;-76
2023/03/22 01:24:40;;;;;;;;;4.00;4.00;;;;;20.51;52.89;100596.58;109591;1254;19654;-76
2023/03/22 01:27:07;;;;;;;;;;;;;;;20.51;52.93;100593.52;109605;1253;23407;-76
2023/03/22 01:29:35;;;;;;;;;5.00;4.00;;;;;20.50;52.68;100589.63;109544;1254;21541;-76
2023/03/22 01:32:03;;;;;;;;;4.00;4.00;;;;;20.51;52.65;100591.36;109507;1253;19444;-76
2023/03/22 01:34:30;;;;;;;;;2.00;2.00;;;;;20.50;52.73;100583.20;109500;1254;20850;-75
2023/03/22 01:36:58;;;;;;;;;;;;;;;20.50;52.73;100578.66;109436;1262;20175;-76
2023/03/22 01:39:26;;;;;;;;;2.00;2.00;;;;;20.51;52.71;100580.44;109468;1253;20865;-75
2023/03/22 01:41:53;;;;;;;;;3.33;3.33;;;;;20.50;52.74;100579.38;109503;1253;20815;-75
2023/03/22 01:44:21;;;;;;;;;2.00;2.00;;;;;20.51;52.65;100578.63;109478;1269;22833;-75
2023/03/22 01:46:48;;;;;;;;;4.00;4.00;;;;;20.51;52.85;100577.73;109517;1268;19194;-75
2023/03/22 01:49:15;;;;;;;;;4.00;4.00;;;;;20.49;52.70;100578.27;109536;1268;19451;-76
2023/03/22 01:51:43;;;;;;;;;4.00;2.00;;;;;20.50;52.64;100567.86;109493;1254;22856;-76
2023/03/22 01:54:10;;;;;;;;;4.00;4.00;;;;;20.50;52.66;100568.56;109493;1253;19890;-75
2023/03/22 01:56:37;;;;;;;;;2.00;2.00;;;;;20.49;52.56;100558.84;109493;1269;19433;-75
2023/03/22 01:59:04;;;;;;;;;3.00;3.00;;;;;20.50;52.70;100560.77;109477;1268;22884;-75
2023/03/22 02:01:32;;;;;;;;;4.00;4.00;;;;;20.50;52.60;100555.52;109509;1253;19642;-75
2023/03/22 02:04:00;;;;;;;;;4.00;4.00;;;;;20.50;52.39;100553.89;109557;1253;20863;-76
2023/03/22 02:06:28;;;;;;;;;4.00;4.00;;;;;20.50;52.60;100555.15;109548;1268;20317;-75
2023/03/22 02:08:57;;;;;;;;;2.00;2.00;;;;;20.49;52.84;100546.86;109480;1268;21021;-76
2023/03/22 02:11:24;;;;;;;;;4.00;2.00;;;;;20.49;52.52;100547.23;109454;1253;22315;-75
2023/03/22 02:13:51;;;;;;;;;4.00;4.00;;;;;20.49;52.60;100545.27;109490;1253;21556;-76
2023/03/22 02:16:19;;;;;;;;;3.00;3.00;;;;;20.49;52.44;100540.56;109518;1253;19301;-75
2023/03/22 02:18:47;;;;;;;;;5.00;4.00;;;;;20.49;52.65;100538.77;109490;1268;19419;-75
2023/03/22 02:21:14;;;;;;;;;2.00;2.00;;;;;20.49;52.76;100539.40;109492;1253;22198;-75
2023/03/22 02:23:41;;;;;;;;;2.00;2.00;;;;;20.49;52.56;100534.34;109483;1253;23069;-76
2023/03/22 02:26:09;;;;;;;;;3.00;2.00;;;;;20.49;52.64;100531.31;109463;1253;20734;-76
2023/03/22 02:28:36;;;;;;;;;2.00;2.00;;;;;20.49;52.57;100529.17;109459;1260;20166;-76
2023/03/22 02:31:03;;;;;;;;;4.00;4.00;;;;;20.49;52.57;100528.77;109482;1268;23509;-76
2023/03/22 02:33:30;;;;;;;;;4.00;4.00;;;;;20.49;52.59;100527.16;109486;1268;19777;-76
2023/03/22 02:35:58;;;;;;;;;4.00;2.00;;;;;20.49;52.76;100525.48;109497;1254;21598;-75
2023/03/22 02:38:25;;;;;;;;;3.00;3.00;;;;;20.48;52.53;100520.16;109507;1269;19601;-75
2023/03/22 02:40:52;;;;;;;;;4.00;4.00;;;;;20.49;52.65;100520.63;109484;1268;19449;-76
2023/03/22 02:43:20;;;;;;;;;4.00;4.00;;;;;20.49;52.72;100517.90;109455;1268;20133;-76
2023/03/22 02:45:47;;;;;;;;;4.00;4.00;;;;;20.48;52.42;100516.17;109454;1269;19576;-76
2023/03/22 02:48:15;;;;;;;;;4.00;4.00;;;;;20.48;52.71;100513.96;109467;1253;22897;-76
2023/03/22 02:50:42;;;;;;;;;2.00;2.00;;;;;20.48;52.65;100516.86;109499;1253;20106;-76
2023/03/22 02:53:09;;;;;;;;;2.00;2.00;;;;;20.49;52.57;100520.42;109523;1254;20975;-76
2023/03/22 02:55:37;;;;;;;;;4.00;2.00;;;;;20.48;52.54;100517.06;109508;1269;21143;-76
2023/03/22 02:58:04;;;;;;;;;2.00;2.00;;;;;20.48;52.51;100521.08;109506;1268;20153;-76
2023/03/22 03:00:31;;;;;;;;;2.00;2.00;;;;;20.48;52.53;100520.20;109493;1269;23662;-76
2023/03/22 03:02:59;;;;;;;;;4.00;4.00;;;;;20.49;52.57;100520.84;109459;1264;21429;-76
2023/03/22 03:05:27;;;;;;;;;2.00;2.00;;;;;20.49;52.59;100519.88;109496;1253;21635;-76
2023/03/22 03:07:54;;;;;;;;;4.00;4.00;;;;;20.48;52.62;100515.79;109492;1263;19336;-76
2023/03/22 03:10:21;;;;;;;;;2.00;2.00;;;;;20.49;52.54;100514.67;109521;1263;20773;-76
2023/03/22 03:12:49;;;;;;;;;4.00;4.00;;;;;20.48;52.49;100515.51;109525;1268;20425;-75
2023/03/22 03:15:17;;;;;;;;;2.00;2.00;;;;;20.47;52.59;100512.48;109486;1268;19555;-76
2023/03/22 03:17:44;;;;;;;;;4.00;2.00;;;;;20.47;52.61;100516.29;109492;1268;23534;-75
2023/03/22 03:20:12;;;;;;;;;4.00;4.00;;;;;20.47;52.64;100516.05;109467;1254;21659;-75
2023/03/22 03:22:39;;;;;;;;;4.00;4.00;;;;;20.47;52.52;100513.77;109507;1269;23525;-76
2023/03/22 03:25:06;;;;;;;;;4.00;2.67;;;;;20.47;52.52;100512.48;109468;1254;20827;-75
2023/03/22 03:27:35;;;;;;;;;5.00;4.00;;;;;20.48;52.54;100513.29;109455;1253;21601;-76
2023/03/22 03:30:02;;;;;;;;;2.50;2.50;;;;;20.47;52.44;100512.80;109470;1253;19653;-75
2023/03/22 03:32:30;;;;;;;;;2.00;2.00;;;;;20.47;52.46;100511.52;109474;1269;19361;-76
2023/03/22 03:34:58;;;;;;;;;2.00;2.00;;;;;20.47;52.56;100510.88;109474;1253;21680;-76
2023/03/22 03:37:25;;;;;;;;;4.00;2.00;;;;;20.47;52.41;100508.88;109508;1268;19624;-75
2023/03/22 03:39:53;;;;;;;;;2.00;2.00;;;;;20.46;52.67;100507.31;109474;1253;20731;-76
2023/03/22 03:42:20;;;;;;;;;7.00;4.00;;;;;20.48;52.46;100512.20;109490;1260;20182;-76
2023/03/22 03:44:47;;;;;;;;;4.00;4.00;;;;;20.47;52.79;100520.23;109490;1268;19182;-76
2023/03/22 03:47:15;;;;;;;;;3.00;2.00;;;;;20.47;52.64;100519.01;109518;1252;19531;-75
2023/03/22 03:49:42;;;;;;;;;4.00;4.00;;;;;20.48;52.46;100516.73;109484;1260;22654;-76
2023/03/22 03:52:09;;;;;;;;;4.00;2.00;;;;;20.48;52.44;100509.18;109442;1253;19633;-76
2023/03/22 03:54:37;;;;;;;;;2.00;2.00;;;;;20.47;52.41;100503.94;109472;1253;20835;-76
2023/03/22 03:57:04;;;;;;;;;4.00;2.00;;;;;20.46;52.66;100503.77;109512;1253;21612;-76
2023/03/22 03:59:31;;;;;;;;;2.00;2.00;;;;;20.45;52.51;100504.14;109587;1253;20877;-76
2023/03/22 04:01:59;;;;;;;;;4.00;4.00;;;;;20.46;52.58;100503.73;109585;1254;20859;-76
2023/03/22 04:04:26;;;;;;;;;4.00;4.00;;;;;20.46;52.55;100503.52;109584;1268;22714;-76
2023/03/22 04:06:55;;;;;;;;;4.00;4.00;;;;;20.46;52.58;100506.05;109500;1254;19725;-76
2023/03/22 04:09:22;;;;;;;;;4.00;4.00;;;;;20.46;52.61;100506.39;109483;1269;23259;-77
2023/03/22 04:11:50;;;;;;;;;4.00;4.00;;;;;20.46;52.44;100505.14;109476;1254;21608;-74
2023/03/22 04:14:17;;;;;;;;;2.00;2.00;;;;;20.45;52.58;100501.99;109448;1253;22641;-75
2023/03/22 04:16:44;;;;;;;;;2.00;2.00;;;;;20.46;52.49;100499.93;109483;1254;23075;-75
2023/03/22 04:19:12;;;;;;;;;4.00;4.00;;;;;20.45;52.65;100498.14;109440;1254;21594;-75
2023/03/22 04:21:39;;;;;;;;;3.00;3.00;;;;;20.46;52.69;100498.79;109491;1269;19301;-74
2023/03/22 04:24:06;;;;;;;;;4.50;4.50;;;;;20.46;52.58;100490.33;109512;1269;19374;-75
2023/03/22 04:26:34;;;;;;;;;2.00;2.00;;;;;20.45;52.63;100492.55;109486;1263;20121;-75
2023/03/22 04:29:02;;;;;;;;;4.00;2.00;;;;;20.45;52.44;100485.14;109487;1254;19694;-74
2023/03/22 04:31:29;;;;;;;;;4.00;4.00;;;;;20.46;52.53;100485.70;109462;1269;22389;-74
2023/03/22 04:33:59;;;;;;;;;2.00;2.00;;;;;20.46;52.63;100485.04;109504;1253;21713;-74
2023/03/22 04:36:30;;;;;;;;;4.00;2.00;;;;;20.45;52.66;100483.48;109494;1268;19231;-74
2023/03/22 04:38:57;;;;;;;;;2.00;2.00;;;;;20.46;52.53;100482.87;109492;1260;24206;-74
2023/03/22 04:41:24;;;;;;;;;2.00;2.00;;;;;20.44;52.54;100479.92;109454;1253;21517;-74
2023/03/22 04:43:52;;;;;;;;;4.00;4.00;;;;;20.45;52.45;100476.60;109482;1254;19705;-75
2023/03/22 04:46:20;;;;;;;;;2.00;2.00;;;;;20.44;52.66;100480.10;109447;1269;20983;-74
2023/03/22 04:48:48;;;;;;;;;2.00;2.00;;;;;20.45;52.49;100472.46;109294;1269;20506;-74
2023/03/22 04:51:15;;;;;;;;;2.00;2.00;;;;;20.45;52.53;100470.25;109486;1269;19149;-75
2023/03/22 04:53:42;;;;;;;;;1.00;1.00;;;;;20.44;52.52;100465.94;109442;1254;20713;-75
2023/03/22 04:56:10;;;;;;;;;4.00;4.00;;;;;20.45;52.42;100468.06;109464;1269;23276;-75
2023/03/22 04:58:38;;;;;;;;;3.00;2.00;;;;;20.44;52.66;100465.06;109474;1269;19654;-75
2023/03/22 05:01:05;;;;;;;;;4.00;2.00;;;;;20.45;52.43;100467.34;109454;1254;21005;-75
2023/03/22 05:03:33;;;;;;;;;3.00;3.00;;;;;20.44;52.46;100466.48;109456;1253;21509;-75
2023/03/22 05:06:00;;;;;;;;;1.67;1.67;;;;;20.45;52.57;100464.63;109483;1261;19555;-74
2023/03/22 05:08:27;;;;;;;;;4.00;2.00;;;;;20.45;52.57;100466.81;109600;1268;23148;-75
2023/03/22 05:10:55;;;;;;;;;2.00;2.00;;;;;20.43;52.52;100462.27;109515;1261;21418;-76
2023/03/22 05:13:22;;;;;;;;;4.00;3.67;;;;;20.43;52.66;100462.89;109463;1269;19186;-75
2023/03/22 05:15:50;;;;;;;;;4.00;3.50;;;;;20.44;52.65;100461.48;109512;1268;19394;-76
2023/03/22 05:18:19;;;;;;;;;2.00;2.00;;;;;20.44;52.49;100459.09;109497;1253;23858;-76
2023/03/22 05:20:46;;;;;;;;;2.00;2.00;;;;;20.44;52.48;100457.96;109492;1253;19073;-75
2023/03/22 05:23:18;;;;;;;;;3.00;3.00;;;;;20.45;52.66;100456.30;109485;1253;23659;-74
2023/03/22 05:25:45;;;;;;;;;4.00;4.00;;;;;20.44;52.45;100455.80;109507;1253;21553;-74
2023/03/22 05:28:13;;;;;;;;;2.00;2.00;;;;;20.45;52.35;100453.76;109473;1253;20034;-74
2023/03/22 05:30:40;;;;;;;;;3.00;2.00;;;;;20.44;52.49;100455.43;109475;1268;19384;-74
2023/03/22 05:33:08;;;;;;;;;5.00;4.00;;;;;20.45;52.37;100452.47;109510;1268;21697;-74
2023/03/22 05:35:36;;;;;;;;;3.00;3.00;;;;;20.44;52.34;100449.13;109487;1253;22959;-74
2023/03/22 05:38:03;;;;;;;;;1.50;1.50;;;;;20.45;52.38;100449.95;109525;1253;19382;-74
2023/03/22 05:40:30;;;;;;;;;4.00;4.00;;;;;20.44;52.44;100451.44;109501;1254;21499;-74
2023/03/22 05:42:58;;;;;;;;;2.00;2.00;;;;;20.44;52.30;100448.63;109527;1268;19299;-75
2023/03/22 05:45:25;;;;;;;;;3.00;2.00;;;;;20.44;52.42;100449.88;109485;1253;19578;-75
2023/03/22 05:47:52;;;;;;;;;2.50;2.50;;;;;20.46;52.37;100455.68;109478;1253;21657;-75
2023/03/22 05:50:20;;;;;;;;;4.00;4.00;;;;;20.49;52.52;100445.61;109524;1253;20460;-75
2023/03/22 05:52:47;;;;;;;;;2.00;2.00;;;;;20.50;52.72;100437.88;109466;1263;19431;-75
2023/03/22 05:55:16;;;;;;;;;5.00;4.00;;;;;20.51;52.78;100439.20;109540;1253;22996;-74
2023/03/22 05:57:43;;;;;;;;;4.00;4.00;;;;;20.52;52.70;100435.32;109524;1268;19219;-75
2023/03/22 06:00:12;;;;;;;;;4.00;4.00;;;;;20.56;53.04;100438.31;109514;1268;19399;-75
2023/03/22 06:02:39;;;;;;;;;4.00;4.00;;;;;20.59;53.15;100435.09;109483;1268;20152;-75
2023/03/22 06:05:07;;;;;;;;;7.50;7.00;;;;;20.62;53.79;100433.73;109444;1268;19110;-76
2023/03/22 06:07:34;;;;;;;;;7.00;7.00;;;;;20.64;54.62;100432.77;109453;1253;19283;-74
2023/03/22 06:10:02;;;;;;;;;7.00;5.00;;;;;20.66;54.90;100435.69;109479;1269;20592;-74
2023/03/22 06:12:30;;;;;;;;;8.00;8.00;;;;;20.65;55.35;100432.36;109466;1253;23910;-77
2023/03/22 06:14:57;;;;;;;;;8.00;7.50;;;;;20.67;55.89;100433.94;109540;1262;20880;-77
2023/03/22 06:17:24;;;;;;;;;8.00;8.00;;;;;20.68;56.48;100446.90;109487;1254;21576;-75
2023/03/22 06:19:53;;;;;;;;;5.00;5.00;;;;;20.68;56.54;100441.95;109283;1253;19515;-75
2023/03/22 06:22:20;;;;;;;;;4.50;4.50;;;;;20.67;56.32;100444.25;109480;1268;23122;-75
2023/03/22 06:24:47;;;;;;;;;5.00;4.50;;;;;20.64;55.95;100441.86;109515;1268;20175;-75
2023/03/22 06:27:15;;;;;;;;;5.00;5.00;;;;;20.62;55.83;100442.65;109504;1269;20496;-75
2023/03/22 06:29:42;;;;;;;;;5.00;5.00;;;;;20.59;56.06;100441.02;109618;1261;19568;-75
2023/03/22 06:32:10;;;;;;;;;4.00;4.00;;;;;20.57;56.07;100437.66;109561;1253;21592;-75
2023/03/22 06:34:37;;;;;;;;;2.00;2.00;;;;;20.57;55.93;100444.57;109501;1260;20584;-75
2023/03/22 06:37:04;;;;;;;;;4.00;4.00;;;;;20.56;55.92;100441.72;109522;1262;20732;-74
2023/03/22 06:39:32;;;;;;;;;2.00;2.00;;;;;20.56;55.73;100444.71;109496;1269;21622;-75
2023/03/22 06:41:59;;;;;;;;;7.00;4.00;;;;;20.54;55.95;100446.63;109469;1269;19268;-74
2023/03/22 06:44:27;;;;;;;;;5.00;5.00;;;;;20.53;55.66;100445.32;109471;1253;23045;-75
2023/03/22 06:46:54;;;;;;;;;5.00;4.00;;;;;20.55;55.36;100447.30;109466;1268;20214;-73
2023/03/22 06:49:21;;;;;;;;;4.00;4.00;;;;;20.57;55.27;100445.79;109450;1254;23150;-74
2023/03/22 06:51:49;;;;;;;;;4.00;4.00;;;;;20.57;54.95;100442.89;109501;1254;20795;-74
2023/03/22 06:54:16;;;;;;;;;4.00;4.00;;;;;20.56;54.95;100440.16;109476;1268;23458;-74
2023/03/22 06:56:43;;;;;;;;;4.00;4.00;;;;;20.55;55.04;100438.80;109461;1268;19315;-74
2023/03/22 06:59:11;;;;;;;;;4.00;4.00;;;;;20.55;54.85;100438.27;109459;1268;23118;-74
2023/03/22 07:01:38;;;;;;;;;4.00;4.00;;;;;20.54;54.88;100444.08;109463;1254;20298;-74
2023/03/22 07:04:05;;;;;;;;;5.00;4.00;;;;;20.54;54.56;100438.34;109481;1268;20584;-74
2023/03/22 07:06:33;;;;;;;;;5.00;4.00;;;;;20.54;54.81;100435.45;109501;1263;23071;-73
2023/03/22 07:09:00;;;;;;;;;4.00;4.00;;;;;20.53;54.84;100431.17;109468;1269;20191;-74
2023/03/22 07:11:28;;;;;;;;;4.00;4.00;;;;;20.54;54.83;100436.54;109497;1253;19724;-73
2023/03/22 07:13:55;;;;;;;;;4.50;4.50;;;;;20.52;54.61;100435.46;109466;1254;20822;-74
2023/03/22 07:16:22;;;;;;;;;5.00;4.00;;;;;20.52;54.51;100433.79;109455;1253;22834;-73
2023/03/22 07:18:50;;;;;;;;;2.00;2.00;;;;;20.51;54.61;100432.64;109504;1254;19681;-74
2023/03/22 07:21:17;;;;;;;;;4.00;4.00;;;;;20.51;54.39;100438.89;109509;1254;22046;-74
2023/03/22 07:23:44;;;;;;;;;5.00;5.00;;;;;20.52;54.41;100432.81;109497;1254;21584;-74
2023/03/22 07:26:12;;;;;;;;;4.00;4.00;;;;;20.52;54.21;100432.43;109517;1269;19651;-74
2023/03/22 07:28:40;;;;;;;;;3.00;3.00;;;;;20.52;54.42;100426.70;109527;1253;23529;-74
2023/03/22 07:31:08;;;;;;;;;4.00;4.00;;;;;20.51;54.39;100425.55;109450;1268;20147;-74
2023/03/22 07:33:36;;;;;;;;;7.00;7.00;;;;;20.52;54.38;100425.70;109480;1253;23399;-74
2023/03/22 07:36:03;;;;;;;;;4.50;4.50;;;;;20.51;54.18;100426.14;109506;1263;20697;-77
2023/03/22 07:38:30;;;;;;;;;4.00;4.00;;;;;20.52;54.35;100430.39;109532;1268;22561;-75
2023/03/22 07:40:58;;;;;;;;;7.00;5.00;;;;;20.55;54.22;100430.98;109560;1253;20801;-76
2023/03/22 07:43:25;;;;;;;;;5.00;5.00;;;;;20.58;54.26;100425.74;109561;1269;20949;-75
2023/03/22 07:45:52;;;;;;;;;5.00;5.00;;;;;20.61;54.76;100423.23;109514;1254;22625;-76
2023/03/22 07:48:20;;;;;;;;;4.00;4.00;;;;;20.62;54.58;100426.53;109551;1253;19708;-78
2023/03/22 07:50:47;;;;;;;;;4.00;4.00;;;;;20.64;54.89;100425.38;109510;1263;21482;-75
2023/03/22 07:53:14;;;;;;;;;4.00;4.00;;;;;20.64;55.42;100420.20;109468;1269;22257;-74
2023/03/22 07:55:42;;;;;;;;;5.00;4.00;;;;;20.65;55.67;100417.41;109487;1268;20120;-75
2023/03/22 07:58:09;;;;;;;;;4.00;4.00;;;;;20.66;55.52;100423.66;109478;1268;19420;-74
2023/03/22 08:00:37;;;;;;;;;5.00;5.00;;;;;20.65;55.77;100419.59;109536;1254;22757;-76
2023/03/22 08:03:04;;;;;;;;;4.00;4.00;;;;;20.65;55.73;100421.27;109526;1260;19217;-73
2023/03/22 08:05:32;;;;;;;;;4.00;2.00;;;;;20.64;55.75;100424.81;109567;1260;23431;-76
2023/03/22 08:07:59;;;;;;;;;7.33;6.33;;;;;20.64;55.72;100429.36;109550;1253;21539;-73
2023/03/22 08:10:27;;;;;;;;;5.00;4.00;;;;;20.64;55.44;100427.19;109556;1269;23136;-76
2023/03/22 08:12:54;;;;;;;;;5.00;5.00;;;;;20.64;55.39;100427.61;109518;1253;19414;-75
2023/03/22 08:15:21;;;;;;;;;7.00;7.00;;;;;20.61;55.57;100424.83;109514;1268;20302;-74
2023/03/22 08:17:49;;;;;;;;;4.50;4.50;;;;;20.61;55.77;100423.74;109570;1254;19713;-74
2023/03/22 08:20:18;;;;;;;;;4.00;4.00;;;;;20.63;55.51;100420.05;109527;1261;19415;-75
2023/03/22 08:22:46;;;;;;;;;7.00;7.00;;;;;20.63;55.51;100422.97;109550;1269;20154;-77
2023/03/22 08:25:13;;;;;;;;;7.00;5.67;;;;;20.63;55.19;100418.41;109416;1254;161881;-75
2023/03/22 08:27:40;;;;;;;;;5.00;5.00;;;;;20.63;55.30;100415.83;109551;1268;19480;-75
2023/03/22 08:30:08;;;;;;;;;5.00;4.00;;;;;20.64;55.41;100413.74;109550;1268;20500;-76
2023/03/22 08:32:35;;;;;;;;;4.00;4.00;;;;;20.64;55.20;100413.23;109529;1269;22310;-75
2023/03/22 08:35:02;;;;;;;;;5.00;4.00;;;;;20.65;55.17;100421.64;109527;1268;20681;-75
2023/03/22 08:37:30;;;;;;;;;4.00;4.00;;;;;20.66;55.33;100418.59;109584;1260;21660;-74
2023/03/22 08:39:57;;;;;;;;;4.00;3.00;;;;;20.65;55.38;100411.80;109541;1260;21616;-74
2023/03/22 08:42:25;;;;;;;;;5.00;4.50;;;;;20.66;55.46;100408.96;109586;1253;19154;-74
2023/03/22 08:44:52;;;;;;;;;6.00;4.50;;;;;20.66;55.29;100407.70;109519;1254;21571;-74
2023/03/22 08:47:20;;;;;;;;;5.00;4.00;;;;;20.66;55.53;100408.20;109560;1269;19267;-74
2023/03/22 08:49:47;;;;;;;;;4.00;4.00;;;;;20.68;55.19;100412.75;109395;1269;20819;-73
2023/03/22 08:52:15;;;;;;;;;4.00;4.00;;;;;20.68;55.23;100418.13;109567;1254;21602;-74
2023/03/22 08:54:42;;;;;;;;;4.00;3.00;;;;;20.68;55.42;100419.08;109490;1253;19710;-73
2023/03/22 08:57:09;;;;;;;;;5.00;4.00;;;;;20.67;55.33;100422.49;109555;1269;19422;-73
2023/03/22 08:59:37;;;;;;;;;4.00;4.00;;;;;20.66;55.24;100425.71;109522;1254;21563;-73
2023/03/22 09:02:04;;;;;;;;;4.00;4.00;;;;;20.67;55.30;100427.19;109543;1269;19406;-72
2023/03/22 09:04:31;;;;;;;;;4.00;4.00;;;;;20.67;55.52;100427.73;109549;1263;23241;-74
2023/03/22 09:06:59;;;;;;;;;5.00;5.00;;;;;20.67;55.29;100425.56;109541;1253;22883;-74
2023/03/22 09:09:26;;;;;;;;;4.00;4.00;;;;;20.65;55.18;100424.52;109553;1260;21017;-73
2023/03/22 09:11:53;;;;;;;;;5.00;5.00;;;;;20.68;55.34;100428.21;109528;1253;23073;-74
2023/03/22 09:14:21;;;;;;;;;4.00;4.00;;;;;20.69;55.40;100420.60;109544;1254;21562;-73
2023/03/22 09:16:48;;;;;;;;;5.00;4.00;;;;;20.70;55.58;100421.55;109577;1269;19219;-74
2023/03/22 09:19:16;;;;;;;;;4.00;4.00;;;;;20.68;55.39;100418.83;109618;1260;23262;-74
2023/03/22 09:21:43;;;;;;;;;2.00;2.00;;;;;20.69;55.47;100422.04;109620;1253;21418;-74
2023/03/22 09:24:11;;;;;;;;;4.00;4.00;;;;;20.67;55.52;100415.35;109590;1254;19833;-77
2023/03/22 09:26:38;;;;;;;;;5.00;5.00;;;;;20.67;55.31;100415.34;109585;1260;19434;-74
2023/03/22 09:29:05;;;;;;;;;19.00;17.00;;;;;20.69;55.52;100412.64;109574;1254;22850;-75
2023/03/22 09:31:33;;;;;;;;;7.00;5.00;;;;;20.70;55.35;100409.53;109518;1269;20978;-75
2023/03/22 09:34:00;;;;;;;;;102.50;73.00;;;;;20.70;55.43;100410.87;109538;1269;19393;-75
2023/03/22 09:36:27;;;;;;;;;89.50;65.50;;;;;20.68;55.56;100409.10;109551;1269;20130;-79
2023/03/22 09:38:55;;;;;;;;;111.00;83.00;;;;;20.68;55.57;100409.08;109517;1269;19284;-75
2023/03/22 09:41:22;;;;;;;;;97.00;70.00;;;;;20.70;55.48;100412.66;109541;1253;23115;-77
2023/03/22 09:43:49;;;;;;;;;85.00;62.50;;;;;20.71;55.51;100417.27;109619;1264;20142;-75
2023/03/22 09:46:17;;;;;;;;;84.00;60.00;;;;;20.70;55.83;100415.55;109537;1253;20017;-76
2023/03/22 09:48:45;;;;;;;;;73.00;56.00;;;;;20.71;56.08;100418.31;109507;1269;19672;-76
2023/03/22 09:51:14;;;;;;;;;72.50;52.50;;;;;20.69;55.95;100414.70;109529;1268;20137;-76
2023/03/22 09:53:42;;;;;;;;;60.67;44.67;;;;;20.67;55.85;100414.42;109507;1254;20115;-71
2023/03/22 09:56:09;;;;;;;;;49.50;39.50;;;;;20.62;55.26;100411.98;109508;1254;21054;-70
2023/03/22 09:58:36;;;;;;;;;51.00;41.00;;;;;20.61;55.07;100411.80;109513;1254;21591;-71
2023/03/22 10:01:04;;;;;;;;;38.50;33.00;;;;;20.60;55.35;100405.92;109508;1253;20077;-71
2023/03/22 10:03:31;;;;;;;;;33.00;31.00;;;;;20.58;55.08;100406.35;109525;1268;23566;-70
2023/03/22 10:05:59;;;;;;;;;35.00;29.00;;;;;20.55;54.84;100404.98;109527;1253;21631;-70
2023/03/22 10:08:26;;;;;;;;;31.50;26.00;;;;;20.52;54.06;100405.95;109464;1269;21193;-70
2023/03/22 10:10:53;;;;;;;;;29.00;25.00;;;;;20.50;53.84;100402.35;109489;1253;22397;-70
2023/03/22 10:13:21;;;;;;;;;26.00;20.50;;;;;20.48;53.73;100400.36;109506;1253;21487;-76
2023/03/22 10:15:48;;;;;;;;;21.00;19.50;;;;;20.46;53.38;100402.46;109501;1269;23325;-76
2023/03/22 10:18:15;;;;;;;;;20.00;17.00;;;;;20.47;53.48;100394.56;109513;1269;19488;-75
2023/03/22 10:20:43;;;;;;;;;22.00;17.00;;;;;20.49;53.43;100393.00;109484;1254;21536;-76
2023/03/22 10:23:10;;;;;;;;;21.00;19.00;;;;;20.51;53.18;100388.63;109485;1268;20186;-76
2023/03/22 10:25:37;;;;;;;;;21.00;16.50;;;;;20.52;53.50;100388.09;109531;1254;21017;-76
2023/03/22 10:28:05;;;;;;;;;19.00;16.50;;;;;20.52;53.28;100384.41;109424;1269;20221;-76
2023/03/22 10:30:32;;;;;;;;;19.00;16.00;;;;;20.53;53.48;100381.27;109484;1254;21355;-76
2023/03/22 10:32:59;;;;;;;;;11.00;11.00;;;;;20.54;53.49;100383.71;109519;1269;22496;-76
2023/03/22 10:35:27;;;;;;;;;13.00;11.00;;;;;20.54;53.55;100382.75;109500;1268;21390;-75
2023/03/22 10:37:54;;;;;;;;;15.00;10.50;;;;;20.55;53.57;100384.35;109502;1253;21470;-75
2023/03/22 10:40:21;;;;;;;;;13.50;13.00;;;;;20.55;53.71;100385.40;109524;1268;19510;-76
2023/03/22 10:42:49;;;;;;;;;11.00;10.00;;;;;20.54;53.68;100390.92;109502;1253;23243;-76
2023/03/22 10:45:16;;;;;;;;;12.00;8.00;;;;;20.54;53.85;100391.67;109522;1268;23416;-76
2023/03/22 10:47:44;;;;;;;;;11.00;10.00;;;;;20.55;53.67;100396.13;109492;1268;20957;-76
2023/03/22 10:50:11;;;;;;;;;11.00;10.00;;;;;20.55;53.66;100395.70;109579;1269;20166;-77
2023/03/22 10:52:39;;;;;;;;;11.00;10.00;;;;;20.56;53.71;100386.88;109567;1264;19514;-75
2023/03/22 10:55:06;;;;;;;;;10.33;10.00;;;;;20.56;53.79;100388.00;109530;1268;19475;-76
2023/03/22 10:57:34;;;;;;;;;10.50;9.00;;;;;20.57;53.71;100388.86;109508;1268;20134;-75
2023/03/22 11:00:01;;;;;;;;;10.00;8.00;;;;;20.56;53.86;100380.39;109473;1260;19994;-75
2023/03/22 11:02:28;;;;;;;;;8.00;8.00;;;;;20.56;53.71;100377.63;109451;1269;19303;-75
2023/03/22 11:04:56;;;;;;;;;10.00;8.00;;;;;20.57;53.89;100378.96;109513;1253;20184;-76
2023/03/22 11:07:23;;;;;;;;;10.00;8.00;;;;;20.59;53.90;100375.20;109508;1268;21064;-77
2023/03/22 11:09:50;;;;;;;;;6.50;5.50;;;;;20.61;53.72;100373.88;109509;1268;20877;-76
2023/03/22 11:12:18;;;;;;;;;13.00;11.00;;;;;20.64;54.19;100374.48;109533;1260;20363;-77
2023/03/22 11:14:45;;;;;;;;;6.00;6.00;;;;;20.66;54.64;100373.94;109520;1268;19662;-74
2023/03/22 11:17:13;;;;;;;;;8.00;7.00;;;;;20.66;55.17;100372.77;109502;1268;21490;-76